WMSAWMKD

Guest
Details From WMSA - Kuala Lumpur S Abdul Aziz Shah
To WMKD - Kuantan Aero
Flight Number -
Tags generated
Created
Modified
Stats Distance 107 nm / 198 km
Max Altitude 11,700 ft / 3,566 m
Waypoints 3
Social Downloads 1
Likes 0
Share VATSIM

Download

Looking for another format? Having issues loading an existing format? Contact us
Advertisement - Login to hide

Notes

Basic altitude profile: - Ascent Rate: 2500ft/min - Ascent Speed: 250kts - Cruise Altitude: 35000ft - Cruise Speed: 420kts - Descent Rate: 1500ft/min - Descent Speed: 250kts Options: - Use NATs: yes - Use PACOTS: yes - Use low airways: yes - Use high airways: yes

Route

WMSA PIBOS WMKD

ID Type Via Altitude Latitude Longitude Leg Dist Tot Dist Heading (true) Name
O WMSA APT - 0 ft / 0 m 3.13058˚ 101.54933˚ - 0 nm - Kuala Lumpur S Abdul Aziz Shah
PIBOS FIX - 11,700 ft / 3,566 m 3.34194˚ 102.05500˚ 32 nm 32 nm 67° / 67° -
O WMKD APT - 0 ft / 0 m 3.77566˚ 103.20906˚ 73 nm 106 nm 69° / 69° Kuantan Aero

Altitude Profile

Advertisement - Login to hide

WMSA

Details ICAO WMSA (SZB)
Name Kuala Lumpur S Abdul Aziz Shah
Region Malaysia (Peninsular Malaysia)
Timezone Asia/Kuala_Lumpur (UTC+8.0)
Stats Elevation 90 ft / 27 m (AMSL)
Location 3.130583° 101.549334°
Runways 1
Magnetic Variation 0.023° W

METAR

WMSA 260300Z 34003KT 260V050 9000 FEW017CB SCT140 BKN280 31/25 Q1010

Decode

TAF

TAF WMSA 251700Z 2518/2618 VRB03KT 3000 HZ FEW025 BECMG 2519/2521 9999 TEMPO 2608/2612 18009KT 5000 TSRA FEW016CB SCT018

Decode

Departure Runways

ID Width Length Bearing (true) Bearing (mag) Surface Threshold Offset Overrun Length
15 148 ft / 45 m 12,450 ft / 3,795 m 149.84° 149.86° Asphalt 0 ft / 0 m 200 ft / 61 m
33 148 ft / 45 m 12,450 ft / 3,795 m 329.84° 329.86° Asphalt 0 ft / 0 m 200 ft / 61 m

WMKD

Details ICAO WMKD (KUA)
Name Kuantan Aero
Region Malaysia (Peninsular Malaysia)
Timezone Asia/Kuala_Lumpur (UTC+8.0)
Stats Elevation 58 ft / 18 m (AMSL)
Location 3.775660° 103.209057°
Runways 1
Magnetic Variation 0.058° E

METAR

WMKD 260300Z VRB03KT 9999 -RA FEW009 FEW017CB SCT024 BKN280 25/25 Q1011 RETSRA NOSIG

Decode

TAF

TAF AMD WMKD 260055Z 2601/2700 VRB04KT 9999 FEW020 TEMPO 2601/2604 7000 -TSRA FEW017CB

Decode

Destination Runways

ID Width Length Bearing (true) Bearing (mag) Surface Threshold Offset Overrun Length
18 150 ft / 46 m 9,253 ft / 2,820 m 183.14° 183.08° Asphalt 0 ft / 0 m 1,062 ft / 324 m
36 150 ft / 46 m 9,253 ft / 2,820 m 3.14° 3.08° Asphalt 0 ft / 0 m 867 ft / 264 m

Approach Navaids

Runway Type Ident Frequency Range Bearing (true) Bearing (mag) Slope Elevation
36 Localiser IKN 109.50 MHz 18 nm / 33 km 359.94° 359.89° - 58 ft / 18 m (AMSL)
36 Glidescope IKN 109.50 MHz 10 nm / 19 km 3.14° 3.08° 3.00° 54 ft / 16 m (AMSL)
36 DME IKN 109.50 MHz 18 nm / 33 km - - - 58 ft / 18 m (AMSL)

Popular Alternatives